Redondo, Valles Caldera, New Mexico Weather observations

Data are for 10 minute period ending at time listed.
 Day   Time   Solar   Ave.   Ave.  Ave.  Vector  Max.   Baro.   Total    
  of    of     Rad.   Air    Rel.  Wind   Wind   Wind  Press.  Precip.   
Year   Day            Temp.  Hum.  Speed  Dir.   Gust                    
2016   (MST)  Kw/m2    F      %     mph   deg.    mph    mb.     in.     
-------------------------------------------------------------------------
  38    9:30   0.30   31.8    37    6.3   306    13.7   692.0    0.00 
  38    9:40   0.38   33.1    35    7.6   314    15.5   692.1    0.00 
  38    9:50   0.38   33.1    35    6.1   305    11.9   692.2    0.00 
  38   10:00   0.44   33.7    34    6.1   307    13.7   692.2    0.00 
  38   10:10   0.54   34.7    32    7.0   304    17.9   692.3    0.00 
  38   10:20   0.54   35.2    33    5.8   302    10.8   692.5    0.00 
  38   10:30   0.56   37.9    31    5.8   310    10.2   692.6    0.00 
  38   10:40   0.64   37.0    31    6.5   298    10.8   692.7    0.00 
  38   10:50   0.67   38.6    30    5.9   298    10.2   692.9    0.00 
  38   11:00   0.65   39.9    29    6.3   307    11.9   692.9    0.00 
  38   11:10   0.59   38.9    30    5.9   305    13.7   692.8    0.00 
  38   11:20   0.61   39.0    30    6.1   304    13.1   692.9    0.00 
  38   11:30   0.57   39.1    30    5.2   305    10.2   692.9    0.00 
  38   11:40   0.65   39.8    29    5.7   308    11.9   692.8    0.00 
  38   11:50   0.81   45.0    25    5.7   317    10.2   692.8    0.00 
  38   12:00   0.71   43.7    25    5.5   311     9.0   692.7    0.00 
  38   12:10   0.73   44.6    24    6.5   314    13.1   692.6    0.00 
  38   12:20   0.73   41.6    26    6.7   304    12.5   692.5    0.00 
  38   12:30   0.76   43.0    26    5.6   305    11.9   692.4    0.00 
  38   12:40   0.70   42.4    26    5.8   303    11.9   692.2    0.00 
  38   12:50   0.72   42.6    26    5.7   308    10.8   692.1    0.00 
  38   13:00   0.72   43.7    25    5.6   307    10.8   692.1    0.00 
  38   13:10   0.58   43.7    26    5.2   308    10.2   692.0    0.00 
  38   13:20   0.51   42.2    27    5.7   308    16.7   691.8    0.00 
  38   13:30   0.56   42.8    26    6.1   305    13.7   691.7    0.00 
  38   13:40   0.20   43.8    26    5.4   316     9.6   691.7    0.00 
  38   13:50   0.45   46.8    24    4.1   308     7.2   691.7    0.00 
  38   14:00   0.65   48.7    22    4.2   313     7.2   691.7    0.00 
  38   14:10   0.63   49.7    22    4.7   313     9.0   691.6    0.00 
  38   14:20   0.61   48.8    23    4.2   307     8.4   691.6    0.00 
  38   14:30   0.59   49.2    22    4.7   316    10.8   691.5    0.00 
  38   14:40   0.57   48.2    24    5.1   312    10.2   691.6    0.00 
  38   14:50   0.54   45.8    24    6.9   312    13.7   691.6    0.00 
  38   15:00   0.52   44.9    25    6.9   308    13.1   691.7    0.01 
  38   15:10   0.49   44.5    24    6.9   317    14.3   691.8    0.00 
  38   15:20   0.46   42.8    26    6.3   308    11.9   691.9    0.00 
  38   15:30   0.43   42.2    26    5.7   304    12.5   691.9    0.00 
  38   15:40   0.41   42.8    26    5.6   306    14.3   692.0    0.00 
  38   15:50   0.37   43.9    25    5.0   312     9.6   692.1    0.00 
  38   16:00   0.34   42.5    25    5.3   308    10.8   692.2    0.00 
  38   16:10   0.29   39.5    27    5.5   304    11.9   692.3    0.00 
  38   16:20   0.21   38.2    28    5.7   307    10.8   692.3    0.00 
  38   16:30   0.21   37.3    29    5.9   307    11.9   692.3    0.00 
  38   16:40   0.12   35.3    31    5.5   312    11.3   692.4    0.00 
  38   16:50   0.07   33.1    33    5.7   304    13.1   692.5    0.00 
  38   17:00   0.03   31.7    35    5.5   299    14.9   692.5    0.00 
  38   17:10   0.04   31.4    35    5.1   296    10.8   692.5    0.00 
  38   17:20   0.02   30.3    36    4.6   303     9.6   692.6    0.00 
  38   17:30   0.01   29.4    38    4.8   299    11.9   692.6    0.00 
  38   17:40   0.01   29.4    38    5.1   305    11.9   692.6    0.00 
  38   17:50   0.00   29.0    38    5.3   299    11.9   692.6    0.00 
  38   18:00   0.00   28.7    39    4.3   299    10.2   692.7    0.00 
  38   18:10   0.00   27.6    40    3.7   292     6.6   692.7    0.00 
  38   18:20   0.00   27.3    40    3.8   296     7.8   692.7    0.00 
  38   18:30   0.00   27.7    39    4.0   296     9.6   692.8    0.00 
  38   18:40   0.00   27.3    40    3.2   291     6.6   692.9    0.00 
  38   18:50   0.00   27.0    40    3.8   294     8.4   692.9    0.00 
  38   19:00   0.00   27.3    38    3.5   296     6.0   692.8    0.00 
  38   19:10   0.00   27.3    38    2.8   295     5.4   692.9    0.00 
  38   19:20   0.00   26.5    40    3.4   289     5.4   693.0    0.00 
  38   19:30   0.00   26.3    41    3.8   288     7.8   693.1    0.00 
  38   19:40   0.00   26.6    40    4.0   295     7.2   693.1    0.00 
  38   19:50   0.00   26.7    39    3.8   301     6.6   693.1    0.00 
  38   20:00   0.00   26.7    38    3.5   299     6.0   693.2    0.00 
  38   20:10   0.00   27.0    37    4.1   304     7.8   693.1    0.00 
  38   20:20   0.00   26.6    38    3.9   303     6.6   693.2    0.00 
  38   20:30   0.00   26.2    39    3.2   305     6.6   693.4    0.00 
  38   20:40   0.00   26.2    39    3.6   308     6.6   693.4    0.00 
  38   20:50   0.00   26.9    35    5.0   321    11.9   693.4    0.00 
  38   21:00   0.00   27.1    35    3.4   309    10.2   693.5    0.00 
  38   21:10   0.00   27.0    35    4.5   318     9.0   693.5    0.00 
  38   21:20   0.00   28.0    32    5.2   313    10.8   693.6    0.00 
  38   21:30   0.00   28.2    32    4.3   317    11.3   693.7    0.00 
  38   21:40   0.00   27.7    33    3.4   311    10.2   693.8    0.00 
  38   21:50   0.00   27.2    33    3.1   304     6.0   693.9    0.00 
  38   22:00   0.00   27.2    33    3.7   312     7.8   693.9    0.00 
  38   22:10   0.00   27.1    33    2.7   309     4.8   693.8    0.00 
  38   22:20   0.00   27.0    33    2.1   297     6.6   693.8    0.00 
  38   22:30   0.00   26.9    33    2.5   247     5.4   693.8    0.00 
  38   22:40   0.00   26.7    33    2.8   233     4.8   693.8    0.00 
  38   22:50   0.00   26.5    32    2.3   232     4.2   693.9    0.00 
  38   23:00   0.00   26.4    32    2.8   231     5.4   694.0    0.00 
  38   23:10   0.00   25.7    32    2.2   242     4.8   694.0    0.00 
  38   23:20   0.00   26.2    32    2.7   263     5.4   693.9    0.00 
  38   23:30   0.00   26.1    32    2.5   280     4.8   693.8    0.00 
  38   23:40   0.00   26.2    33    2.4   273     6.0   693.8    0.00 
  38   23:50   0.00   26.0    34    3.5   265     6.0   693.8    0.00 
  39    0:00   0.00   26.1    33    2.9   256     4.8   693.8    0.00 
  39    0:10   0.00   26.1    33    2.4   250     4.2   693.8    0.00 
  39    0:20   0.00   25.8    33    1.8   232     3.6   693.7    0.00 
  39    0:30   0.00   25.3    33    2.5   257     5.4   693.8    0.00 
  39    0:40   0.00   25.4    34    2.9   262     4.2   693.6    0.00 
  39    0:50   0.00   25.4    34    3.1   270     6.6   693.5    0.00 
  39    1:00   0.00   25.1    35    3.2   278     5.4   693.5    0.00 
  39    1:10   0.00   25.2    35    3.1   278     5.4   693.5    0.00 
  39    1:20   0.00   25.4    34    3.7   272     7.2   693.5    0.00 
  39    1:30   0.00   25.2    34    3.8   269     7.2   693.4    0.00 
  39    1:40   0.00   25.8    33    4.0   283     8.4   693.5    0.00 
  39    1:50   0.00   26.0    34    4.0   282     7.8   693.5    0.00 
  39    2:00   0.00   26.3    33    4.1   288     7.2   693.5    0.00 
  39    2:10   0.00   26.1    33    4.2   290     7.8   693.5    0.00 
  39    2:20   0.00   26.0    32    4.2   291     8.4   693.5    0.00 
  39    2:30   0.00   26.2    31    4.3   293     7.8   693.5    0.00 
  39    2:40   0.00   26.1    30    4.3   291     9.6   693.5    0.00 
  39    2:50   0.00   26.8    29    4.5   292    10.2   693.5    0.00 
  39    3:00   0.00   26.8    29    4.8   288     9.0   693.5    0.00 
  39    3:10   0.00   27.0    29    5.1   290     9.6   693.7    0.00 
  39    3:20   0.00   26.9    29    4.0   292     8.4   693.7    0.00 
  39    3:30   0.00   26.3    30    4.1   287     9.6   693.7    0.00 
  39    3:40   0.00   25.7    31    3.9   293     7.8   693.6    0.00 
  39    3:50   0.00   26.5    30    4.3   292    11.3   693.5    0.00 
  39    4:00   0.00   25.8    31    3.8   302     7.8   693.6    0.00 
  39    4:10   0.00   26.2    30    4.2   302     8.4   693.6    0.00 
  39    4:20   0.00   26.4    32    4.2   302     9.0   693.6    0.00 
  39    4:30   0.00   26.5    33    4.3   300    10.8   693.6    0.00 
  39    4:40   0.00   27.0    32    5.0   299    12.5   693.6    0.00 
  39    4:50   0.00   26.4    34    4.7   295    10.2   693.7    0.00 
  39    5:00   0.00   26.3    35    4.8   298     9.6   693.8    0.00 
  39    5:10   0.00   25.4    38    3.9   298    11.9   693.8    0.00 
  39    5:20   0.00   25.1    37    4.7   299     9.6   693.9    0.00 
  39    5:30   0.00   25.5    36    4.4   299     9.6   694.0    0.00 
  39    5:40   0.00   25.6    35    4.4   301    11.3   694.1    0.00 
  39    5:50   0.00   25.4    36    4.1   301     7.2   694.1    0.00 
  39    6:00   0.00   25.9    34    4.8   302     9.0   694.1    0.00 
  39    6:10   0.00   27.1    31    5.5   302    13.7   694.2    0.00 
  39    6:20   0.00   27.5    30    5.4   304    11.9   694.1    0.00 
  39    6:30   0.00   27.8    29    5.0   306     9.6   694.3    0.00 
  39    6:40   0.00   27.9    28    5.0   302     9.6   694.3    0.00 
  39    6:50   0.00   28.5    27    5.3   303    14.3   694.4    0.00 
  39    7:00   0.00   28.3    27    4.6   309     7.8   694.4    0.00 
  39    7:10   0.01   28.1    27    4.1   306     9.6   694.6    0.00 
  39    7:20   0.01   28.0    27    4.4   299    11.3   694.6    0.00 
  39    7:30   0.01   28.5    28    4.6   303     9.0   694.7    0.00 
  39    7:40   0.02   28.8    27    5.0   307    10.2   694.8    0.00 
  39    7:50   0.06   29.6    26    5.5   304    13.1   694.8    0.00 
  39    8:00   0.12   32.1    24    5.0   304    12.5   694.9    0.00 
  39    8:10   0.16   33.9    22    5.1   304    10.2   695.1    0.00 
  39    8:20   0.22   36.4    20    4.7   303    11.9   695.1    0.00 
  39    8:30   0.26   37.6    19    6.0   300    14.9   695.0    0.00 
  39    8:40   0.29   38.9    18    4.9   305    10.2   695.2    0.00 
  39    8:50   0.32   40.2    17    5.4   303    10.2   695.1    0.00 
  39    9:00   0.35   41.8    15    5.1   305     9.6   695.1    0.00 
  39    9:10   0.39   41.0    17    5.3   302    10.8   695.1    0.00 
  39    9:20   0.42   40.9    20    5.5   303    11.3   695.2    0.00 

Return to Redondo, Valles Caldera graphs page.


Western Regional Climate Center,wrcc@dri.edu